Time;durP1;ratioP1;P1;durP2;ratioP2;P2;SDS_P1;SDS_P2;PMS_P1;PMS_P2;Temp;Humidity;BMP_temperature;BMP_pressure;BME280_temperature;BME280_humidity;BME280_pressure;Samples;Min_cycle;Max_cycle;Signal;HPM_P1;HPM_P2
2024/01/09 00:00:35;;;;;;;7.40;5.07;;;;;;;19.55;48.63;101274.78;5049778;28;20049;-58
2024/01/09 00:03:02;;;;;;;8.18;5.28;;;;;;;19.56;48.68;101273.81;5048990;28;20064;-58
2024/01/09 00:05:30;;;;;;;5.40;4.25;;;;;;;19.56;48.53;101276.50;5042518;28;20529;-58
2024/01/09 00:07:58;;;;;;;7.93;5.22;;;;;;;19.56;48.76;101273.81;5025162;28;20045;-60
2024/01/09 00:10:26;;;;;;;10.60;6.07;;;;;;;19.57;48.65;101280.88;5041451;28;20089;-60
2024/01/09 00:12:53;;;;;;;7.75;5.20;;;;;;;19.58;48.60;101279.94;5049244;28;20045;-60
2024/01/09 00:15:20;;;;;;;8.88;5.35;;;;;;;19.57;48.79;101284.44;5042796;28;20059;-60
2024/01/09 00:17:48;;;;;;;6.10;4.65;;;;;;;19.57;48.76;101279.06;5036650;28;20395;-59
2024/01/09 00:20:16;;;;;;;10.02;5.15;;;;;;;19.57;48.67;101276.38;5040932;28;20101;-60
2024/01/09 00:27:23;;;;;;;6.32;4.30;;;;;;;19.57;48.29;101275.50;5043538;28;20061;-58
2024/01/09 00:29:50;;;;;;;7.05;4.40;;;;;;;19.56;48.01;101280.03;5048687;28;20056;-56
2024/01/09 00:32:18;;;;;;;9.00;4.47;;;;;;;19.56;48.00;101281.88;5028202;28;20042;-56
2024/01/09 00:34:45;;;;;;;8.35;4.53;;;;;;;19.57;48.01;101283.56;5034590;28;20045;-55
2024/01/09 00:37:13;;;;;;;8.65;5.03;;;;;;;19.57;48.04;101283.56;5045728;28;20052;-57
2024/01/09 00:39:40;;;;;;;6.43;4.47;;;;;;;19.57;47.88;101286.25;5048882;28;20067;-59
2024/01/09 00:42:08;;;;;;;6.63;4.28;;;;;;;19.57;47.73;101288.94;5050856;28;20048;-60
2024/01/09 00:44:35;;;;;;;8.52;4.45;;;;;;;19.56;47.68;101288.09;5046302;28;20045;-59
2024/01/09 00:47:03;;;;;;;6.78;4.25;;;;;;;19.56;47.62;101298.81;5045709;28;20408;-59
2024/01/09 00:49:30;;;;;;;6.60;4.40;;;;;;;19.56;47.52;101298.81;5048443;28;20053;-60
2024/01/09 00:51:58;;;;;;;8.95;4.60;;;;;;;19.55;47.62;101297.13;5048719;28;20056;-60
2024/01/09 00:54:25;;;;;;;5.78;3.85;;;;;;;19.56;47.40;101301.50;5047404;28;20045;-60
2024/01/09 00:56:52;;;;;;;5.32;3.53;;;;;;;19.56;47.46;101303.34;5045895;28;20057;-58
2024/01/09 00:59:20;;;;;;;7.00;3.95;;;;;;;19.55;47.43;101305.19;5048690;28;20488;-58
2024/01/09 01:01:50;;;;;;;7.20;3.75;;;;;;;19.56;47.41;101311.41;5049115;28;20052;-58
2024/01/09 01:04:18;;;;;;;6.10;3.40;;;;;;;19.56;47.43;101314.09;5044033;28;20090;-58
2024/01/09 01:06:46;;;;;;;6.80;4.13;;;;;;;19.55;47.19;101321.28;5045718;28;20045;-58
2024/01/09 01:09:13;;;;;;;7.80;4.15;;;;;;;19.55;47.22;101325.81;5048819;28;20049;-58
2024/01/09 01:12:12;;;;;;;6.65;3.85;;;;;;;19.54;47.24;101338.38;5048436;28;20491;-58
2024/01/09 01:14:40;;;;;;;6.60;3.92;;;;;;;19.54;47.06;101332.16;5046322;28;20412;-58
2024/01/09 01:17:07;;;;;;;7.82;4.57;;;;;;;19.54;46.99;101338.38;5048132;28;20052;-59
2024/01/09 01:19:34;;;;;;;5.63;3.47;;;;;;;19.54;47.01;101338.38;5037730;28;20046;-60
2024/01/09 01:22:02;;;;;;;5.78;3.40;;;;;;;19.52;47.01;101338.50;5038797;28;20499;-60
2024/01/09 01:24:29;;;;;;;6.25;3.95;;;;;;;19.53;46.88;101344.75;5047235;28;20468;-60
2024/01/09 01:26:56;;;;;;;5.75;3.65;;;;;;;19.52;46.67;101340.31;5048476;28;20680;-58
2024/01/09 01:29:24;;;;;;;6.38;4.18;;;;;;;19.52;46.75;101349.22;5048381;28;20059;-58
2024/01/09 01:31:51;;;;;;;7.60;3.90;;;;;;;19.52;46.74;101351.06;5045041;28;20044;-57
2024/01/09 01:34:18;;;;;;;7.05;3.95;;;;;;;19.51;46.59;101355.59;5021947;28;20063;-58
2024/01/09 01:36:46;;;;;;;4.32;3.03;;;;;;;19.51;46.60;101354.75;5048193;28;20064;-59
2024/01/09 01:39:13;;;;;;;6.63;3.72;;;;;;;19.50;46.62;101358.41;5048411;28;20049;-60
2024/01/09 01:41:41;;;;;;;4.53;3.28;;;;;;;19.50;46.45;101356.56;5046269;28;20048;-60
2024/01/09 01:44:16;;;;;;;6.20;3.17;;;;;;;19.50;46.37;101353.88;5045881;28;20042;-60
2024/01/09 01:46:45;;;;;;;5.00;3.30;;;;;;;19.49;46.35;101364.75;5048480;28;20060;-59
2024/01/09 01:49:14;;;;;;;4.95;3.17;;;;;;;19.48;46.21;101360.34;5047837;28;20052;-60
2024/01/09 01:51:44;;;;;;;5.07;2.95;;;;;;;19.48;46.32;101369.25;5042627;28;20037;-60
2024/01/09 01:54:13;;;;;;;5.80;3.78;;;;;;;19.47;46.18;101372.91;5025437;28;20041;-60
2024/01/09 01:56:41;;;;;;;5.32;3.25;;;;;;;19.47;46.38;101370.22;5046742;28;20049;-58
2024/01/09 01:59:10;;;;;;;6.00;3.13;;;;;;;19.46;46.25;101370.38;5045324;28;20055;-58
2024/01/09 02:01:38;;;;;;;4.82;2.92;;;;;;;19.45;46.42;101372.19;5041409;28;20044;-57
2024/01/09 02:04:07;;;;;;;5.20;3.38;;;;;;;19.45;46.23;101366.81;5047893;28;20045;-58
2024/01/09 02:06:35;;;;;;;4.85;3.13;;;;;;;19.45;46.49;101379.41;5047414;28;20411;-59
2024/01/09 02:09:04;;;;;;;4.68;3.30;;;;;;;19.44;46.38;101383.88;5045745;28;20056;-57
2024/01/09 02:11:31;;;;;;;5.20;3.13;;;;;;;19.45;46.43;101384.78;5042958;28;20042;-58
2024/01/09 02:13:59;;;;;;;5.93;3.90;;;;;;;19.44;46.46;101383.03;5047728;28;20045;-57
2024/01/09 02:16:26;;;;;;;5.13;3.15;;;;;;;19.43;46.34;101381.34;5047782;28;20051;-57
2024/01/09 02:18:54;;;;;;;5.28;3.25;;;;;;;19.43;46.41;101375.97;5046795;28;20484;-59
2024/01/09 02:21:21;;;;;;;5.25;2.92;;;;;;;19.42;46.40;101376.94;5019421;28;20049;-59
2024/01/09 02:23:49;;;;;;;5.40;3.25;;;;;;;19.41;46.44;101383.31;5047927;28;20040;-60
2024/01/09 02:26:25;;;;;;;4.15;2.92;;;;;;;19.41;46.53;101386.00;5047346;28;20041;-60
2024/01/09 02:29:21;;;;;;;4.85;3.03;;;;;;;19.40;46.41;101387.78;5042282;28;20066;-57
2024/01/09 02:31:49;;;;;;;4.43;2.78;;;;;;;19.40;46.15;101389.63;5047460;28;20045;-56
2024/01/09 02:34:17;;;;;;;4.97;2.90;;;;;;;19.39;46.18;101385.22;5029474;28;20041;-56
2024/01/09 02:36:45;;;;;;;4.10;2.83;;;;;;;19.38;46.03;101381.69;5043228;28;20383;-59
2024/01/09 02:39:12;;;;;;;5.47;3.05;;;;;;;19.37;46.23;101387.19;5021574;28;20072;-60
2024/01/09 02:41:39;;;;;;;4.43;2.88;;;;;;;19.36;46.22;101385.47;5047907;28;20033;-60
2024/01/09 02:44:07;;;;;;;4.15;2.72;;;;;;;19.37;46.09;101387.19;5049595;28;20049;-60
2024/01/09 02:46:34;;;;;;;4.68;3.17;;;;;;;19.36;46.10;101383.63;5034810;28;20041;-58
2024/01/09 02:49:02;;;;;;;3.95;2.35;;;;;;;19.36;46.02;101386.31;5044983;28;20408;-59
2024/01/09 02:51:29;;;;;;;4.72;2.65;;;;;;;19.35;46.11;101387.28;5047660;28;20045;-60
2024/01/09 02:53:57;;;;;;;4.70;2.78;;;;;;;19.34;45.88;101390.97;5047746;28;20049;-60
2024/01/09 02:56:24;;;;;;;3.80;2.45;;;;;;;19.34;45.78;101379.38;5045811;28;20049;-59
2024/01/09 02:58:51;;;;;;;6.25;3.28;;;;;;;19.33;45.89;101383.88;5043863;28;20057;-58
2024/01/09 03:01:19;;;;;;;5.15;3.15;;;;;;;19.34;45.88;101395.47;5047798;28;20041;-57
2024/01/09 03:03:46;;;;;;;5.05;2.83;;;;;;;19.33;45.83;101391.09;5047352;28;20045;-57
2024/01/09 03:06:13;;;;;;;4.53;2.67;;;;;;;19.34;45.73;101390.13;5035976;28;20049;-57
2024/01/09 03:08:41;;;;;;;6.07;3.33;;;;;;;19.33;45.83;101394.63;5044708;28;20057;-58
2024/01/09 03:11:08;;;;;;;5.65;2.85;;;;;;;19.33;45.73;101402.69;5047145;28;20052;-57
2024/01/09 03:13:36;;;;;;;4.28;2.70;;;;;;;19.33;45.83;101404.50;5049304;28;20049;-57
2024/01/09 03:16:13;;;;;;;4.65;2.75;;;;;;;19.33;45.64;101404.50;5049912;28;20379;-57
2024/01/09 03:18:43;;;;;;;3.58;2.45;;;;;;;19.32;45.72;101400.94;5051627;28;20052;-57
2024/01/09 03:21:11;;;;;;;3.53;2.25;;;;;;;19.31;45.64;101396.56;5050870;28;20121;-57
2024/01/09 03:23:38;;;;;;;4.25;2.50;;;;;;;19.31;45.62;101401.94;5051634;28;20049;-57
2024/01/09 03:26:06;;;;;;;3.80;2.58;;;;;;;19.31;45.73;101412.66;5046216;28;20411;-58
2024/01/09 03:28:36;;;;;;;4.10;2.55;;;;;;;19.31;45.83;101407.28;5028156;28;20056;-58
2024/01/09 03:31:03;;;;;;;4.57;2.47;;;;;;;19.31;45.84;101414.50;5051880;28;20045;-57
2024/01/09 03:33:31;;;;;;;4.28;2.42;;;;;;;19.31;45.73;101417.19;5050829;28;20037;-57
2024/01/09 03:36:04;;;;;;;3.90;2.45;;;;;;;19.31;45.63;101414.50;5022855;28;20071;-58
2024/01/09 03:38:31;;;;;;;4.95;3.00;;;;;;;19.29;45.87;101411.94;5050042;28;20093;-60
2024/01/09 03:40:59;;;;;;;3.80;2.47;;;;;;;19.30;45.88;101416.34;5050751;28;20049;-60
2024/01/09 03:43:26;;;;;;;4.97;2.60;;;;;;;19.30;45.90;101418.16;5040447;28;20045;-60
2024/01/09 03:45:54;;;;;;;3.83;2.35;;;;;;;19.30;45.81;101428.91;5048026;28;20046;-60
2024/01/09 03:48:22;;;;;;;3.67;2.42;;;;;;;19.30;46.02;101431.59;5050685;28;20048;-59
2024/01/09 03:50:49;;;;;;;3.28;2.20;;;;;;;19.29;45.91;101432.56;5050790;28;20053;-60
2024/01/09 03:53:17;;;;;;;2.90;1.95;;;;;;;19.29;45.89;101425.38;5038549;28;20056;-60
2024/01/09 03:55:45;;;;;;;4.00;2.42;;;;;;;19.27;45.98;101425.47;5047864;28;20511;-60
2024/01/09 03:58:13;;;;;;;3.92;2.50;;;;;;;19.27;45.96;101422.78;5046783;28;20060;-59
2024/01/09 04:00:40;;;;;;;4.72;2.63;;;;;;;19.29;45.72;101421.84;5050934;28;20052;-60
2024/01/09 04:03:07;;;;;;;3.85;2.53;;;;;;;19.27;45.75;101421.94;5049941;28;20052;-60
2024/01/09 04:05:35;;;;;;;3.15;2.08;;;;;;;19.27;46.04;101433.53;5046225;28;20049;-60
2024/01/09 04:08:02;;;;;;;3.40;2.47;;;;;;;19.26;46.08;101434.50;5051550;28;20045;-57
2024/01/09 04:10:33;;;;;;;3.85;2.60;;;;;;;19.28;46.16;101434.38;5050417;28;20041;-57
2024/01/09 04:13:01;;;;;;;3.75;2.58;;;;;;;19.29;46.22;101437.94;5049472;28;20041;-59
2024/01/09 04:15:28;;;;;;;3.70;2.40;;;;;;;19.27;46.33;101449.63;5046893;28;20050;-57
2024/01/09 04:17:56;;;;;;;5.55;2.58;;;;;;;19.28;46.28;101447.78;5050591;28;20052;-57
2024/01/09 04:20:23;;;;;;;4.28;2.67;;;;;;;19.27;46.47;101444.25;5050478;28;20053;-57
2024/01/09 04:22:51;;;;;;;4.05;2.40;;;;;;;19.27;46.72;101452.31;5049404;28;20064;-58
2024/01/09 04:25:18;;;;;;;3.60;2.30;;;;;;;19.26;46.55;101436.34;5044354;28;20053;-57
2024/01/09 04:27:46;;;;;;;2.95;1.98;;;;;;;19.26;46.62;101447.91;5051094;28;20052;-57
2024/01/09 04:30:13;;;;;;;4.22;2.47;;;;;;;19.27;46.59;101448.78;5049816;28;20048;-57
2024/01/09 04:32:41;;;;;;;4.50;2.92;;;;;;;19.26;46.57;101453.28;5049205;28;20041;-57
2024/01/09 04:35:09;;;;;;;5.47;2.50;;;;;;;19.26;46.65;101453.28;5045750;28;20050;-57
2024/01/09 04:37:37;;;;;;;3.45;2.10;;;;;;;19.25;46.55;101459.63;5030704;28;20037;-58
2024/01/09 04:40:05;;;;;;;4.00;2.47;;;;;;;19.25;46.67;101458.78;5050965;28;20052;-57
2024/01/09 04:42:33;;;;;;;4.40;2.85;;;;;;;19.26;46.63;101464.03;5048634;28;20102;-57
2024/01/09 04:45:00;;;;;;;3.80;2.20;;;;;;;19.25;46.72;101470.38;5047895;28;20053;-57
2024/01/09 04:47:27;;;;;;;3.78;2.60;;;;;;;19.26;46.66;101473.91;5050276;28;20048;-57
2024/01/09 04:49:55;;;;;;;3.53;2.40;;;;;;;19.26;46.81;101481.97;5050021;28;20048;-57
2024/01/09 04:52:23;;;;;;;3.78;2.72;;;;;;;19.26;46.59;101481.97;5048798;28;20055;-57
2024/01/09 04:54:51;;;;;;;3.55;2.17;;;;;;;19.25;46.58;101480.25;5047196;28;20046;-57
2024/01/09 04:57:19;;;;;;;4.65;3.13;;;;;;;19.25;46.53;101485.63;5049766;28;20048;-59
2024/01/09 04:59:49;;;;;;;3.13;2.13;;;;;;;19.24;46.42;101489.25;5049853;28;20048;-60
2024/01/09 05:02:16;;;;;;;3.17;2.03;;;;;;;19.24;46.56;101487.47;5048488;28;20056;-60
2024/01/09 05:04:44;;;;;;;3.40;2.38;;;;;;;19.22;46.45;101486.72;5045118;28;20038;-60
2024/01/09 05:07:11;;;;;;;4.45;2.88;;;;;;;19.22;46.61;101492.06;5037227;28;20044;-60
2024/01/09 05:09:39;;;;;;;3.90;2.38;;;;;;;19.22;46.47;101491.22;5049935;28;20048;-60
2024/01/09 05:12:06;;;;;;;4.05;2.67;;;;;;;19.21;46.60;101486.84;5047559;28;20053;-60
2024/01/09 05:14:33;;;;;;;4.15;2.67;;;;;;;19.21;46.42;101494.88;5046749;28;20054;-59
2024/01/09 05:17:01;;;;;;;3.80;2.30;;;;;;;19.21;46.49;101497.56;5048794;28;20076;-59
2024/01/09 05:19:28;;;;;;;5.00;2.92;;;;;;;19.22;46.53;101501.97;5048664;28;20391;-61
2024/01/09 05:21:56;;;;;;;3.83;2.42;;;;;;;19.20;46.54;101502.09;5047975;28;20048;-59
2024/01/09 05:24:23;;;;;;;3.47;2.28;;;;;;;19.20;46.48;101507.47;5047348;28;20098;-59
2024/01/09 05:26:50;;;;;;;3.47;2.10;;;;;;;19.20;46.48;101510.13;5049557;28;20049;-58
2024/01/09 05:29:18;;;;;;;4.03;2.28;;;;;;;19.20;46.29;101507.47;5049294;28;20400;-59
2024/01/09 05:31:45;;;;;;;4.07;2.70;;;;;;;19.21;46.55;101519.91;5047836;28;20415;-60
2024/01/09 05:34:12;;;;;;;3.08;2.17;;;;;;;19.20;46.51;101506.56;5046997;28;20055;-60
2024/01/09 05:36:40;;;;;;;3.28;2.20;;;;;;;19.20;46.47;101511.94;5041806;28;20392;-57
2024/01/09 05:39:07;;;;;;;3.42;2.30;;;;;;;19.20;46.77;101517.31;5039292;28;20403;-57
2024/01/09 05:41:35;;;;;;;3.60;2.50;;;;;;;19.20;46.53;101523.56;5048377;28;20041;-56
2024/01/09 05:44:02;;;;;;;4.22;2.78;;;;;;;19.19;46.55;101521.81;5041948;28;20041;-56
2024/01/09 05:46:30;;;;;;;3.55;2.60;;;;;;;19.18;46.85;101535.38;5049941;28;20041;-59
2024/01/09 05:48:58;;;;;;;3.15;2.15;;;;;;;19.18;46.80;101536.22;5049333;28;20049;-59
2024/01/09 05:51:25;;;;;;;3.53;2.30;;;;;;;19.19;46.70;101542.44;5047620;28;20041;-60
2024/01/09 05:53:53;;;;;;;3.95;2.67;;;;;;;19.17;46.89;101544.41;5047152;28;20049;-56
2024/01/09 05:56:20;;;;;;;3.22;2.35;;;;;;;19.17;46.86;101549.78;5049250;28;20064;-60
2024/01/09 05:58:48;;;;;;;3.25;2.15;;;;;;;19.17;46.74;101553.31;5046876;28;20053;-60
2024/01/09 06:01:15;;;;;;;3.40;2.20;;;;;;;19.17;47.06;101560.50;5048409;28;20380;-60
2024/01/09 06:03:43;;;;;;;4.20;2.40;;;;;;;19.16;47.12;101556.09;5046888;28;20401;-58
2024/01/09 06:06:11;;;;;;;3.92;2.30;;;;;;;19.16;46.92;101558.75;5047984;28;20140;-59
2024/01/09 06:08:38;;;;;;;4.10;2.30;;;;;;;19.16;47.07;101558.75;5048942;28;20056;-59
2024/01/09 06:11:05;;;;;;;5.32;2.80;;;;;;;19.15;47.15;101563.28;5047034;28;20049;-60
2024/01/09 06:13:33;;;;;;;2.90;2.13;;;;;;;19.14;47.14;101566.09;5047002;28;20045;-60
2024/01/09 06:16:00;;;;;;;3.17;2.10;;;;;;;19.14;47.16;101566.94;5048847;28;20045;-58
2024/01/09 06:18:28;;;;;;;3.28;2.10;;;;;;;19.14;47.10;101560.72;5048986;28;20056;-59
2024/01/09 06:20:55;;;;;;;4.15;2.40;;;;;;;19.14;47.09;101563.41;5047686;28;20045;-59
2024/01/09 06:23:22;;;;;;;4.03;2.30;;;;;;;19.14;47.13;101558.03;5046085;28;20046;-59
2024/01/09 06:25:50;;;;;;;3.50;2.10;;;;;;;19.13;47.14;101554.50;5048896;28;20049;-59
2024/01/09 06:28:17;;;;;;;3.92;2.00;;;;;;;19.12;47.28;101552.78;5049249;28;20096;-59
2024/01/09 06:30:45;;;;;;;3.63;2.72;;;;;;;19.12;47.15;101555.47;5036204;28;20064;-59
2024/01/09 06:33:12;;;;;;;3.05;2.03;;;;;;;19.11;47.21;101569.84;5045946;28;20170;-59
2024/01/09 06:35:40;;;;;;;3.65;2.15;;;;;;;19.11;47.28;101569.00;5047288;28;20510;-59
2024/01/09 06:38:07;;;;;;;3.53;1.98;;;;;;;19.11;47.19;101566.31;5031752;28;20053;-57
2024/01/09 06:40:35;;;;;;;3.65;2.20;;;;;;;19.10;47.32;101576.19;5040086;28;20045;-54
2024/01/09 06:43:02;;;;;;;3.58;2.10;;;;;;;19.11;47.28;101590.47;5044351;28;20148;-56
2024/01/09 06:45:30;;;;;;;3.40;2.35;;;;;;;19.10;47.28;101586.94;5040848;28;20398;-56
2024/01/09 06:47:57;;;;;;;3.72;2.45;;;;;;;19.10;47.24;101586.06;5047900;28;20053;-58
2024/01/09 06:50:25;;;;;;;4.60;2.60;;;;;;;19.10;47.36;101592.28;5047074;28;20481;-59
2024/01/09 06:53:04;;;;;;;3.33;2.22;;;;;;;19.10;47.31;101597.66;5048972;28;20049;-59
2024/01/09 06:55:31;;;;;;;4.50;2.30;;;;;;;19.10;47.10;101597.66;5047181;28;20060;-59
2024/01/09 06:57:58;;;;;;;6.05;2.80;;;;;;;19.10;47.19;101596.81;5036757;28;20052;-59
2024/01/09 07:00:26;;;;;;;3.17;2.28;;;;;;;19.09;47.44;101601.31;5045323;28;20056;-59
2024/01/09 07:02:53;;;;;;;4.60;2.40;;;;;;;19.10;47.32;101612.91;5049164;28;20392;-59
2024/01/09 07:05:21;;;;;;;3.40;2.20;;;;;;;19.09;47.26;101612.06;5048500;28;20052;-59
2024/01/09 07:07:48;;;;;;;3.75;2.35;;;;;;;19.09;47.45;101614.75;5038926;28;20049;-59
2024/01/09 07:10:17;;;;;;;3.95;2.78;;;;;;;19.08;47.26;101610.34;5047932;28;20483;-59
2024/01/09 07:12:45;;;;;;;5.03;2.38;;;;;;;19.10;47.17;101623.66;5026512;28;20494;-59
2024/01/09 07:15:14;;;;;;;5.05;2.13;;;;;;;19.08;47.25;101620.19;5048609;28;20044;-58
2024/01/09 07:17:46;;;;;;;3.50;2.13;;;;;;;19.08;47.26;101612.16;5049086;28;20048;-58
2024/01/09 07:20:15;;;;;;;3.95;2.22;;;;;;;19.09;47.30;101624.63;5041162;28;20054;-59
2024/01/09 07:22:43;;;;;;;3.70;2.40;;;;;;;19.07;47.21;101624.72;5029663;28;20384;-59
2024/01/09 07:25:15;;;;;;;3.80;2.40;;;;;;;19.07;47.18;101627.41;5041056;28;20049;-59
2024/01/09 07:27:42;;;;;;;3.40;2.13;;;;;;;19.08;47.35;101630.94;5047576;28;20049;-56
2024/01/09 07:30:10;;;;;;;3.30;1.98;;;;;;;19.07;47.36;101637.28;5045199;28;20412;-57
2024/01/09 07:32:38;;;;;;;3.42;2.15;;;;;;;19.08;47.27;101639.00;5047960;28;20076;-57
2024/01/09 07:35:06;;;;;;;3.78;2.13;;;;;;;19.05;47.52;101648.13;5038842;28;20420;-57
2024/01/09 07:37:34;;;;;;;4.53;2.28;;;;;;;19.07;47.47;101645.34;5047890;28;20049;-59
2024/01/09 07:40:02;;;;;;;3.53;2.30;;;;;;;19.05;47.58;101648.13;5022409;28;20054;-60
2024/01/09 07:42:30;;;;;;;3.53;2.40;;;;;;;19.04;47.66;101651.78;5048866;28;20056;-60
2024/01/09 07:45:03;;;;;;;4.57;2.75;;;;;;;19.03;47.41;101653.59;5037854;28;20397;-60
2024/01/09 07:47:31;;;;;;;3.05;1.95;;;;;;;19.03;47.58;101661.66;5048568;28;20044;-59
2024/01/09 07:49:58;;;;;;;5.72;2.60;;;;;;;19.03;47.57;101661.66;5047520;28;20062;-60
2024/01/09 07:52:26;;;;;;;3.83;2.35;;;;;;;19.02;47.64;101662.63;5047964;28;20052;-60
2024/01/09 07:54:53;;;;;;;3.17;2.20;;;;;;;19.03;47.61;101671.53;5036426;28;20037;-62
2024/01/09 07:57:22;;;;;;;3.47;2.65;;;;;;;19.05;47.37;101669.59;5041150;28;20042;-59
2024/01/09 07:59:57;;;;;;;5.60;2.45;;;;;;;19.08;47.69;101674.75;5033410;28;20057;-60
2024/01/09 08:02:27;;;;;;;3.75;2.20;;;;;;;19.09;47.57;101668.41;5043932;28;20046;-60
2024/01/09 08:04:55;;;;;;;3.55;2.15;;;;;;;19.09;47.69;101673.78;5051402;28;20056;-59
2024/01/09 08:07:23;;;;;;;4.03;2.60;;;;;;;19.09;47.66;101680.97;5038887;28;20041;-60
2024/01/09 08:09:50;;;;;;;4.60;2.50;;;;;;;19.08;47.72;101682.81;5054226;28;20049;-62
2024/01/09 08:12:18;;;;;;;3.42;2.30;;;;;;;19.11;47.54;101689.78;5043192;28;20526;-61
2024/01/09 08:14:47;;;;;;;4.28;2.65;;;;;;;19.10;47.49;101690.75;5051172;28;20037;-61
2024/01/09 08:17:14;;;;;;;6.05;2.83;;;;;;;19.11;47.43;101698.69;5045398;28;20056;-61
2024/01/09 08:19:42;;;;;;;4.57;2.58;;;;;;;19.12;46.98;101704.91;5048698;28;20051;-63
2024/01/09 08:22:09;;;;;;;4.15;2.40;;;;;;;19.13;46.24;101702.13;5051470;28;20056;-68
2024/01/09 08:24:37;;;;;;;4.53;2.95;;;;;;;19.13;45.06;101710.19;5048922;28;20049;-67
2024/01/09 08:27:04;;;;;;;5.63;3.30;;;;;;;19.13;44.37;101710.19;5035649;28;20056;-61
2024/01/09 08:29:32;;;;;;;5.65;3.38;;;;;;;19.12;43.53;101713.84;5048459;28;20053;-61
2024/01/09 08:32:00;;;;;;;4.00;2.80;;;;;;;19.11;42.55;101712.09;5051606;28;20049;-62
2024/01/09 08:34:27;;;;;;;5.75;3.42;;;;;;;19.11;41.91;101717.47;5054761;28;20045;-61
2024/01/09 08:36:54;;;;;;;5.78;3.10;;;;;;;19.11;41.96;101720.16;5044481;28;20050;-60
2024/01/09 08:39:22;;;;;;;4.80;3.00;;;;;;;19.10;41.78;101717.59;5037375;28;20052;-59
2024/01/09 08:41:49;;;;;;;5.03;3.50;;;;;;;19.08;41.34;101717.69;5020634;28;20350;-63
2024/01/09 08:44:17;;;;;;;5.25;3.53;;;;;;;19.08;41.40;101717.69;5024603;28;20057;-59
2024/01/09 08:46:45;;;;;;;5.60;3.40;;;;;;;19.08;40.71;101720.38;5022958;28;20045;-60
2024/01/09 08:49:12;;;;;;;6.57;4.13;;;;;;;19.09;40.62;101730.16;5022171;28;20053;-58
2024/01/09 08:51:40;;;;;;;4.47;3.15;;;;;;;19.09;40.47;101730.16;5021655;28;20065;-59
2024/01/09 08:54:08;;;;;;;7.30;4.05;;;;;;;19.10;40.24;101736.38;5022234;28;20046;-61
2024/01/09 08:56:35;;;;;;;6.97;3.25;;;;;;;19.09;39.83;101730.16;5028101;28;20056;-61
2024/01/09 08:59:03;;;;;;;5.32;3.80;;;;;;;19.08;39.58;101739.19;5033069;28;20046;-61
2024/01/09 09:01:35;;;;;;;5.78;3.78;;;;;;;19.10;39.90;101739.06;5021836;28;20061;-58
2024/01/09 09:04:03;;;;;;;5.33;3.10;;;;;;;19.11;41.14;101738.94;5023030;28;20046;-61
2024/01/09 09:06:31;;;;;;;6.85;3.10;;;;;;;19.13;41.63;101746.91;5026229;28;20285;-60
2024/01/09 09:08:59;;;;;;;4.78;3.67;;;;;;;19.15;41.74;101750.31;5019104;28;20053;-61
2024/01/09 09:11:26;;;;;;;7.28;3.83;;;;;;;19.15;42.03;101747.63;5020945;28;20404;-62
2024/01/09 09:13:54;;;;;;;6.68;3.42;;;;;;;19.16;42.07;101757.41;5021300;28;20045;-62
2024/01/09 09:16:22;;;;;;;4.90;3.25;;;;;;;19.16;42.05;101754.72;5026424;28;20398;-63
2024/01/09 09:18:49;;;;;;;4.75;3.22;;;;;;;19.18;42.35;101759.00;5021577;28;20053;-61
2024/01/09 09:21:17;;;;;;;4.38;2.92;;;;;;;19.19;42.25;101776.81;5027541;28;20037;-61
2024/01/09 09:23:45;;;;;;;3.90;3.03;;;;;;;19.20;42.08;101781.25;5026290;28;20172;-61
2024/01/09 09:26:12;;;;;;;5.47;3.33;;;;;;;19.20;42.20;101775.88;5026292;28;20040;-63
2024/01/09 09:28:42;;;;;;;4.45;3.20;;;;;;;19.21;42.18;101779.44;5021222;28;20049;-61
2024/01/09 09:31:29;;;;;;;5.95;3.05;;;;;;;19.22;42.14;101776.63;5020823;28;20046;-62
2024/01/09 09:33:56;;;;;;;4.22;2.88;;;;;;;19.22;42.00;101787.34;5020386;28;20052;-60
2024/01/09 09:36:24;;;;;;;5.78;3.03;;;;;;;19.21;41.70;101780.28;5031531;28;20046;-61
2024/01/09 09:38:53;;;;;;;4.47;2.80;;;;;;;19.23;41.73;101783.69;5020019;28;20050;-63
2024/01/09 09:41:21;;;;;;;4.43;3.08;;;;;;;19.23;42.04;101789.06;5019940;28;20056;-61
2024/01/09 09:43:53;;;;;;;4.53;2.88;;;;;;;19.26;42.18;101796.06;5023016;28;20045;-60
2024/01/09 09:46:32;;;;;;;5.00;3.17;;;;;;;19.26;42.27;101791.53;5023777;28;20053;-61
2024/01/09 09:49:01;;;;;;;4.72;3.33;;;;;;;19.27;42.34;101797.78;5020930;28;20054;-60
2024/01/09 09:51:29;;;;;;;4.53;3.05;;;;;;;19.26;42.31;101799.59;5029577;28;20068;-60
2024/01/09 09:53:57;;;;;;;5.30;2.88;;;;;;;19.27;42.25;101798.63;5021661;28;20058;-60
2024/01/09 09:56:25;;;;;;;5.88;3.33;;;;;;;19.29;42.44;101801.22;5019229;28;20054;-60
2024/01/09 09:58:55;;;;;;;5.20;2.95;;;;;;;19.30;42.49;101792.19;5025533;28;20061;-59
2024/01/09 10:01:23;;;;;;;4.50;2.58;;;;;;;19.30;42.59;101794.03;5026466;28;20375;-59
2024/01/09 10:03:53;;;;;;;4.10;2.88;;;;;;;19.32;42.75;101797.44;5021241;28;20554;-58
2024/01/09 10:06:21;;;;;;;4.72;2.80;;;;;;;19.31;42.71;101791.22;5020393;28;20061;-60
2024/01/09 10:08:53;;;;;;;5.53;3.28;;;;;;;19.32;42.72;101787.56;5020838;28;20046;-59
2024/01/09 10:11:21;;;;;;;5.30;2.90;;;;;;;19.34;42.88;101792.84;5026795;28;20502;-59
2024/01/09 10:13:49;;;;;;;4.10;2.63;;;;;;;19.34;42.95;101791.00;5020373;28;20045;-61
2024/01/09 10:16:16;;;;;;;3.97;2.63;;;;;;;19.34;43.07;101791.00;5020118;28;20488;-59
2024/01/09 10:18:44;;;;;;;3.90;2.95;;;;;;;19.36;43.01;101796.25;5029446;28;20041;-60
2024/01/09 10:21:12;;;;;;;4.28;3.03;;;;;;;19.36;43.09;101794.44;5023184;28;20094;-59
2024/01/09 10:23:40;;;;;;;5.15;2.83;;;;;;;19.37;43.06;101787.25;5021190;28;20050;-59
2024/01/09 10:26:11;;;;;;;4.93;3.00;;;;;;;19.37;43.06;101798.00;5020334;28;20523;-61
2024/01/09 10:28:39;;;;;;;5.90;3.25;;;;;;;19.39;43.29;101788.00;5019431;28;20041;-60
2024/01/09 10:31:07;;;;;;;5.18;2.95;;;;;;;19.38;43.31;101789.81;5024777;28;20056;-60
2024/01/09 10:33:39;;;;;;;3.72;3.08;;;;;;;19.40;43.28;101787.88;5020634;28;20499;-60
2024/01/09 10:36:09;;;;;;;4.50;2.50;;;;;;;19.39;43.46;101791.53;5020374;28;20385;-60
2024/01/09 10:38:36;;;;;;;6.85;2.88;;;;;;;19.40;43.29;101781.66;5025301;28;20287;-60
2024/01/09 10:41:17;;;;;;;4.10;2.65;;;;;;;19.40;43.13;101787.88;5021581;28;20057;-61
2024/01/09 10:43:47;;;;;;;4.78;3.35;;;;;;;19.41;43.44;101786.94;5016656;28;20046;-60
2024/01/09 10:46:15;;;;;;;6.25;2.53;;;;;;;19.41;43.48;101784.25;5021092;28;20061;-59
2024/01/09 10:48:43;;;;;;;4.70;3.22;;;;;;;19.42;43.46;101793.16;5026869;28;20430;-59
2024/01/09 10:51:13;;;;;;;4.07;2.75;;;;;;;19.42;43.69;101790.47;5020556;28;20053;-61
2024/01/09 10:53:44;;;;;;;3.60;2.17;;;;;;;19.41;43.62;101784.25;5020364;28;20502;-59
2024/01/09 10:56:17;;;;;;;3.53;2.60;;;;;;;19.42;43.55;101785.09;5022936;28;20056;-61
2024/01/09 10:58:46;;;;;;;4.80;3.03;;;;;;;19.41;43.52;101781.56;5034914;28;20044;-60
2024/01/09 11:01:14;;;;;;;4.32;2.67;;;;;;;19.40;42.63;101787.88;5021134;28;20046;-61
2024/01/09 11:03:42;;;;;;;4.03;2.70;;;;;;;19.39;42.04;101786.16;5020473;28;20056;-60
2024/01/09 11:06:14;;;;;;;4.53;3.05;;;;;;;19.38;41.52;101787.13;5027178;28;20044;-63
2024/01/09 11:08:48;;;;;;;4.57;3.10;;;;;;;19.37;41.11;101781.88;5021445;28;20805;-61
2024/01/09 11:11:18;;;;;;;4.30;2.58;;;;;;;19.36;41.18;101783.69;5030067;28;20049;-62
2024/01/09 11:13:50;;;;;;;5.28;2.95;;;;;;;19.36;40.78;101777.47;5024038;28;20050;-60
2024/01/09 11:16:19;;;;;;;4.45;2.80;;;;;;;19.35;40.96;101781.13;5021538;28;20049;-59
2024/01/09 11:18:47;;;;;;;4.88;2.83;;;;;;;19.34;41.21;101769.53;5019977;28;20045;-60
2024/01/09 11:21:17;;;;;;;4.95;2.72;;;;;;;19.35;41.12;101768.56;5019711;28;20069;-59
2024/01/09 11:23:51;;;;;;;4.30;2.75;;;;;;;19.36;41.04;101769.41;5022216;28;20377;-60
2024/01/09 11:26:19;;;;;;;4.55;2.72;;;;;;;19.34;41.64;101766.84;5021592;28;20049;-60
2024/01/09 11:28:47;;;;;;;6.07;2.65;;;;;;;19.35;41.40;101773.06;5019912;28;20097;-60
2024/01/09 11:31:20;;;;;;;4.57;2.45;;;;;;;19.34;41.46;101766.00;5019219;28;20046;-60
2024/01/09 11:33:48;;;;;;;6.10;2.75;;;;;;;19.34;41.17;101766.00;5025758;28;20400;-61